createdAt,value
2022-10-03T00:03:11.662Z,100235.13
2022-10-03T00:07:13.073Z,100237.44
2022-10-03T00:11:34.029Z,100248.66
2022-10-03T00:15:39.785Z,100256.53
2022-10-03T00:19:52.557Z,100265.16
2022-10-03T00:23:57.545Z,100278.16
2022-10-03T00:28:18.177Z,100288.53
2022-10-03T00:32:46.224Z,100286.00
2022-10-03T00:36:55.417Z,100293.84
2022-10-03T00:40:57.427Z,100293.97
2022-10-03T00:44:59.224Z,100296.53
2022-10-03T00:49:10.520Z,100298.28
2022-10-03T00:53:35.446Z,100297.38
2022-10-03T00:57:44.084Z,100301.34
2022-10-03T01:01:47.399Z,100294.31
2022-10-03T01:06:16.717Z,100294.34
2022-10-03T01:10:22.341Z,100288.31
2022-10-03T01:14:26.933Z,100300.41
2022-10-03T01:18:45.202Z,100303.13
2022-10-03T01:22:55.553Z,100291.91
2022-10-03T01:26:58.802Z,100278.09
2022-10-03T01:31:03.177Z,100282.28
2022-10-03T01:35:13.472Z,100290.13
2022-10-03T01:39:42.188Z,100278.97
2022-10-03T01:43:43.516Z,100273.00
2022-10-03T01:48:21.537Z,100268.84
2022-10-03T01:52:38.065Z,100271.56
2022-10-03T01:56:50.491Z,100269.84
2022-10-03T02:01:10.318Z,100269.03
2022-10-03T02:05:15.036Z,100264.78
2022-10-03T02:09:22.564Z,100274.41
2022-10-03T02:13:25.729Z,100280.31
2022-10-03T02:17:35.238Z,100268.25
2022-10-03T02:21:52.632Z,100268.25
2022-10-03T02:26:12.649Z,100264.03
2022-10-03T02:30:24.536Z,100260.69
2022-10-03T02:34:38.806Z,100255.53
2022-10-03T02:38:46.507Z,100246.97
2022-10-03T02:43:05.448Z,100253.00
2022-10-03T02:47:13.029Z,100249.56
2022-10-03T02:51:39.878Z,100252.13
2022-10-03T02:56:00.162Z,100262.50
2022-10-03T03:00:21.205Z,100261.63
2022-10-03T03:04:41.533Z,100264.19
2022-10-03T03:08:46.893Z,100275.44
2022-10-03T03:13:14.768Z,100284.00
2022-10-03T03:17:27.073Z,100278.75
2022-10-03T03:21:37.912Z,100283.06
2022-10-03T03:25:58.328Z,100280.50
2022-10-03T03:30:18.525Z,100291.72
2022-10-03T03:34:37.091Z,100302.97
2022-10-03T03:38:46.548Z,100301.06
2022-10-03T03:42:50.848Z,100311.34
2022-10-03T03:47:10.650Z,100310.47
2022-10-03T03:51:23.415Z,100313.97
2022-10-03T03:55:42.549Z,100314.88
2022-10-03T04:00:07.809Z,100314.16
2022-10-03T04:04:15.574Z,100298.59
2022-10-03T04:08:46.582Z,100303.66
2022-10-03T04:13:06.796Z,100305.16
2022-10-03T04:17:26.903Z,100305.91
2022-10-03T04:21:51.083Z,100306.72
2022-10-03T04:26:14.580Z,100318.84
2022-10-03T04:30:18.848Z,100316.16
2022-10-03T04:34:37.396Z,100322.81
2022-10-03T04:39:00.161Z,100328.50
2022-10-03T04:43:10.129Z,100328.69
2022-10-03T04:47:26.557Z,100326.91
2022-10-03T04:51:42.680Z,100326.91
2022-10-03T04:55:43.997Z,100325.91
2022-10-03T04:59:55.641Z,100333.63
2022-10-03T05:04:15.917Z,100336.38
2022-10-03T05:08:37.497Z,100345.88
2022-10-03T05:12:45.393Z,100354.47
2022-10-03T05:16:49.806Z,100353.78
2022-10-03T05:20:57.215Z,100354.72
2022-10-03T05:25:21.781Z,100365.13
2022-10-03T05:29:44.853Z,100370.19
2022-10-03T05:34:00.286Z,100363.31
2022-10-03T05:38:10.916Z,100370.28
2022-10-03T05:47:13.051Z,100371.25
2022-10-03T05:51:37.329Z,100375.44
2022-10-03T05:55:51.900Z,100374.53
2022-10-03T05:59:56.145Z,100378.88
2022-10-03T06:04:22.733Z,100383.19
2022-10-03T06:08:40.663Z,100381.44
2022-10-03T06:17:10.384Z,100380.41
2022-10-03T06:21:32.317Z,100390.75
2022-10-03T06:25:55.914Z,100386.56
2022-10-03T06:30:03.653Z,100393.44
2022-10-03T06:34:12.320Z,100398.69
2022-10-03T06:38:34.749Z,100409.97
2022-10-03T06:42:42.664Z,100407.69
2022-10-03T06:46:56.652Z,100405.31
2022-10-03T06:51:25.100Z,100413.19
2022-10-03T06:55:29.964Z,100407.16
2022-10-03T06:59:57.745Z,100413.06
2022-10-03T07:04:02.017Z,100417.34
2022-10-03T07:08:03.228Z,100423.38
2022-10-03T07:12:12.061Z,100426.00
2022-10-03T07:16:43.180Z,100420.16
2022-10-03T07:20:50.628Z,100419.31
2022-10-03T07:25:05.776Z,100416.75
2022-10-03T07:29:09.196Z,100420.25
2022-10-03T07:33:29.809Z,100420.44
2022-10-03T07:37:52.869Z,100416.34
2022-10-03T07:42:12.976Z,100427.63
2022-10-03T07:46:32.905Z,100431.09
2022-10-03T07:50:59.667Z,100429.63
2022-10-03T07:55:23.328Z,100444.50
2022-10-03T07:59:30.745Z,100450.72
2022-10-03T08:03:51.342Z,100455.06
2022-10-03T08:08:18.736Z,100456.78
2022-10-03T08:12:43.848Z,100457.75
2022-10-03T08:17:03.909Z,100452.78
2022-10-03T08:21:10.556Z,100451.22
2022-10-03T08:25:20.941Z,100452.16
2022-10-03T08:29:41.018Z,100464.38
2022-10-03T08:34:02.952Z,100455.06
2022-10-03T08:38:04.605Z,100458.03
2022-10-03T08:42:24.412Z,100453.94
2022-10-03T08:46:44.860Z,100460.19
2022-10-03T08:50:52.955Z,100473.38
2022-10-03T08:55:06.572Z,100465.78
2022-10-03T08:59:15.500Z,100463.28
2022-10-03T09:03:34.424Z,100468.66
2022-10-03T09:07:58.138Z,100462.75
2022-10-03T09:12:26.357Z,100468.13
2022-10-03T09:16:29.967Z,100466.44
2022-10-03T09:20:53.731Z,100466.59
2022-10-03T09:25:10.174Z,100464.38
2022-10-03T09:29:29.160Z,100462.84
2022-10-03T09:33:51.012Z,100462.22
2022-10-03T09:38:02.968Z,100462.34
2022-10-03T09:42:22.803Z,100454.53
2022-10-03T09:47:19.368Z,100453.66
2022-10-03T09:51:27.305Z,100450.19
2022-10-03T09:55:57.725Z,100445.81
2022-10-03T09:59:59.707Z,100446.66
2022-10-03T10:04:22.101Z,100439.63
2022-10-03T10:08:40.664Z,100442.19
2022-10-03T10:13:01.296Z,100437.78
2022-10-03T10:17:03.737Z,100442.88
2022-10-03T10:21:37.792Z,100436.69
2022-10-03T10:26:07.816Z,100450.50
2022-10-03T10:30:23.994Z,100432.94
2022-10-03T10:34:41.137Z,100434.63
2022-10-03T10:39:14.820Z,100424.03
2022-10-03T10:43:57.215Z,100420.44
2022-10-03T10:48:05.195Z,100429.09
2022-10-03T10:52:17.209Z,100424.63
2022-10-03T11:01:22.081Z,100413.03
2022-10-03T11:05:29.832Z,100414.63
2022-10-03T11:09:53.749Z,100413.66
2022-10-03T11:14:19.898Z,100412.69
2022-10-03T11:18:54.884Z,100405.72
2022-10-03T11:23:14.955Z,100396.06
2022-10-03T11:27:35.269Z,100393.59
2022-10-03T11:31:49.024Z,100383.34
2022-10-03T11:36:09.941Z,100376.69
2022-10-03T11:40:34.900Z,100382.19
2022-10-03T11:44:44.554Z,100384.72
2022-10-03T11:49:06.932Z,100392.41
2022-10-03T11:53:17.492Z,100385.31
2022-10-03T11:57:34.756Z,100375.56
2022-10-03T12:02:00.983Z,100374.38
2022-10-03T12:06:27.309Z,100366.00
2022-10-03T12:10:28.558Z,100362.00
2022-10-03T12:14:45.988Z,100362.53
2022-10-03T12:18:47.240Z,100354.53
2022-10-03T12:22:55.347Z,100342.06
2022-10-03T12:27:16.016Z,100346.13
2022-10-03T12:31:26.505Z,100348.81
2022-10-03T12:35:52.837Z,100338.63
2022-10-03T12:39:54.097Z,100332.06
2022-10-03T12:44:11.973Z,100330.56
2022-10-03T12:48:28.821Z,100323.94
2022-10-03T12:52:30.235Z,100318.25
2022-10-03T12:57:08.829Z,100320.28
2022-10-03T13:01:28.946Z,100312.50
2022-10-03T13:05:30.502Z,100323.22
2022-10-03T13:10:01.812Z,100316.41
2022-10-03T13:14:07.950Z,100306.66
2022-10-03T13:18:10.837Z,100301.13
2022-10-03T13:22:30.837Z,100300.81
2022-10-03T13:26:44.435Z,100301.44
2022-10-03T13:30:58.818Z,100315.09
2022-10-03T13:35:30.893Z,100317.47
2022-10-03T13:39:44.963Z,100320.97
2022-10-03T13:44:10.121Z,100315.34
2022-10-03T13:48:20.840Z,100311.09
2022-10-03T13:52:31.858Z,100307.44
2022-10-03T13:56:52.874Z,100312.56
2022-10-03T14:01:10.058Z,100299.22
2022-10-03T14:05:26.216Z,100289.38
2022-10-03T14:09:38.301Z,100294.44
2022-10-03T14:13:58.765Z,100294.13
2022-10-03T14:18:09.216Z,100289.47
2022-10-03T14:22:29.269Z,100284.75
2022-10-03T14:26:38.944Z,100285.44
2022-10-03T14:31:05.091Z,100281.44
2022-10-03T14:35:13.983Z,100282.81
2022-10-03T14:39:21.824Z,100278.81
2022-10-03T14:43:46.011Z,100278.34
2022-10-03T14:47:49.524Z,100273.59
2022-10-03T14:52:01.917Z,100269.56
2022-10-03T14:56:06.426Z,100269.03
2022-10-03T15:00:09.362Z,100263.22
2022-10-03T15:04:15.586Z,100266.81
2022-10-03T15:08:17.489Z,100259.72
2022-10-03T15:12:22.378Z,100257.94
2022-10-03T15:16:24.881Z,100246.56
2022-10-03T15:20:30.900Z,100249.81
2022-10-03T15:24:41.888Z,100246.97
2022-10-03T15:28:46.473Z,100254.53
2022-10-03T15:32:49.677Z,100259.56
2022-10-03T15:37:00.914Z,100252.63
2022-10-03T15:41:05.857Z,100253.34
2022-10-03T15:45:07.586Z,100249.41
2022-10-03T15:49:23.030Z,100249.84
2022-10-03T15:53:38.590Z,100247.59
2022-10-03T15:57:43.523Z,100250.00
2022-10-03T16:01:47.676Z,100245.72
2022-10-03T16:05:56.344Z,100243.47
2022-10-03T16:10:00.913Z,100245.88
2022-10-03T16:14:02.241Z,100237.34
2022-10-03T16:18:18.061Z,100238.00
2022-10-03T16:22:23.895Z,100231.47
2022-10-03T16:26:29.127Z,100222.34
2022-10-03T16:30:39.981Z,100228.78
2022-10-03T16:34:43.349Z,100222.81
2022-10-03T16:38:56.484Z,100224.72
2022-10-03T16:42:59.468Z,100217.91
2022-10-03T16:47:02.976Z,100222.34
2022-10-03T16:51:06.460Z,100218.03
2022-10-03T16:55:15.773Z,100217.16
2022-10-03T16:59:21.428Z,100218.03
2022-10-03T17:03:24.460Z,100225.84
2022-10-03T17:07:29.083Z,100207.59
2022-10-03T17:11:32.741Z,100203.28
2022-10-03T17:15:36.406Z,100198.03
2022-10-03T17:19:40.669Z,100194.59
2022-10-03T17:23:49.540Z,100207.56
2022-10-03T17:27:52.340Z,100203.19
2022-10-03T17:32:12.389Z,100195.38
2022-10-03T17:36:28.971Z,100204.88
2022-10-03T17:40:37.213Z,100213.50
2022-10-03T17:44:48.754Z,100204.78
2022-10-03T17:49:19.032Z,100202.13
2022-10-03T17:53:22.228Z,100199.50
2022-10-03T17:57:26.544Z,100187.28
2022-10-03T18:01:31.320Z,100190.72
2022-10-03T18:05:45.672Z,100181.13
2022-10-03T18:09:48.113Z,100191.50
2022-10-03T18:13:53.115Z,100184.50
2022-10-03T18:17:59.959Z,100193.16
2022-10-03T18:22:07.358Z,100193.13
2022-10-03T18:26:35.998Z,100186.97
2022-10-03T18:30:55.976Z,100193.00
2022-10-03T18:35:06.492Z,100183.38
2022-10-03T18:39:14.813Z,100176.41
2022-10-03T18:43:34.248Z,100172.88
2022-10-03T18:47:38.004Z,100167.59
2022-10-03T18:51:47.121Z,100171.88
2022-10-03T18:55:51.577Z,100165.75
2022-10-03T19:00:17.180Z,100159.66
2022-10-03T19:04:37.168Z,100161.25
2022-10-03T19:08:42.082Z,100159.41
2022-10-03T19:12:46.684Z,100159.28
2022-10-03T19:16:51.232Z,100166.06
2022-10-03T19:21:02.012Z,100162.56
2022-10-03T19:25:05.006Z,100154.66
2022-10-03T19:29:09.607Z,100156.44
2022-10-03T19:33:22.182Z,100153.78
2022-10-03T19:37:26.494Z,100154.59
2022-10-03T19:41:34.001Z,100158.00
2022-10-03T19:45:36.788Z,100165.69
2022-10-03T19:49:56.272Z,100161.31
2022-10-03T19:53:58.012Z,100165.63
2022-10-03T19:58:14.249Z,100164.75
2022-10-03T20:02:23.759Z,100169.06
2022-10-03T20:06:35.135Z,100163.00
2022-10-03T20:10:39.750Z,100162.84
2022-10-03T20:14:42.128Z,100154.16
2022-10-03T20:18:52.548Z,100164.47
2022-10-03T20:22:55.629Z,100163.56
2022-10-03T20:27:19.075Z,100163.53
2022-10-03T20:31:24.844Z,100160.03
2022-10-03T20:35:51.024Z,100145.34
2022-10-03T20:39:55.664Z,100135.84
2022-10-03T20:44:15.736Z,100136.66
2022-10-03T20:48:29.145Z,100145.22
2022-10-03T20:52:30.512Z,100149.41
2022-10-03T20:56:44.911Z,100153.72
2022-10-03T21:00:48.374Z,100153.63
2022-10-03T21:04:54.970Z,100150.97
2022-10-03T21:08:57.217Z,100150.84
2022-10-03T21:13:15.056Z,100147.31
2022-10-03T21:17:18.179Z,100149.84
2022-10-03T21:21:19.445Z,100161.78
2022-10-03T21:25:23.164Z,100155.59
2022-10-03T21:29:24.396Z,100147.69
2022-10-03T21:33:29.775Z,100155.31
2022-10-03T21:37:37.368Z,100150.13
2022-10-03T21:42:02.028Z,100149.06
2022-10-03T21:46:22.102Z,100142.13
2022-10-03T21:50:41.188Z,100138.56
2022-10-03T21:54:54.236Z,100122.88
2022-10-03T21:59:14.331Z,100127.13
2022-10-03T22:03:24.704Z,100133.91
2022-10-03T22:07:37.533Z,100116.56
2022-10-03T22:11:46.689Z,100112.16
2022-10-03T22:16:07.380Z,100113.75
2022-10-03T22:20:26.115Z,100111.06
2022-10-03T22:24:35.082Z,100115.25
2022-10-03T22:28:39.656Z,100109.84
2022-10-03T22:32:47.099Z,100097.69
2022-10-03T22:36:49.013Z,100100.19
2022-10-03T22:40:58.139Z,100094.97
2022-10-03T22:44:59.573Z,100094.00
2022-10-03T22:49:17.419Z,100088.75
2022-10-03T22:53:20.885Z,100083.44
2022-10-03T22:57:23.316Z,100085.94
2022-10-03T23:01:24.949Z,100073.78
2022-10-03T23:05:52.310Z,100070.28
2022-10-03T23:10:00.157Z,100064.19
2022-10-03T23:14:11.394Z,100068.47
2022-10-03T23:18:32.492Z,100068.44
2022-10-03T23:22:35.868Z,100069.09
2022-10-03T23:26:40.268Z,100068.16
2022-10-03T23:30:45.281Z,100060.31
2022-10-03T23:34:47.444Z,100055.03
2022-10-03T23:38:48.737Z,100051.47
2022-10-03T23:43:03.086Z,100047.97
2022-10-03T23:47:05.156Z,100043.44
2022-10-03T23:51:07.867Z,100045.84
2022-10-03T23:55:10.265Z,100049.31
2022-10-03T23:59:14.352Z,100047.38
